RLU397 USHH-UWSG
Flight info
| Callsign | RLU397 |
|---|---|
| Flight time | 2h 39m |
| Altitude | 32000 |
| Route | N0420F320 NEMON R487 KESEB N604 PIGUR T580 SADER W63 INGEN T765 GEMKI T690 IDLET T790 RORNA T789 OGRER |
| Aircraft | CRJ2/M-J/L |
Departure
| Time | 2026-05-07 20:45 |
|---|---|
| Airport | Khanty Mansiysk Airport (USHH) |
Arrival
| Time | 2026-05-07 23:25 |
|---|---|
| Airport | Gagarin International Airport (UWSG) |
| Time | Latitude | Longitude | Altitude | Speed | Heading |
|---|---|---|---|---|---|
| 2026-05-07 20:32 | 61.02689 | 69.09051 | 144 ft | 0 kts | 75° |
| 2026-05-07 20:42 | 61.02690 | 69.09057 | 144 ft | 2 kts | 75° |
| 2026-05-07 20:42 | 61.02704 | 69.09112 | 144 ft | 7 kts | 33° |
| 2026-05-07 20:42 | 61.02737 | 69.09077 | 144 ft | 8 kts | 280° |
| 2026-05-07 20:42 | 61.02717 | 69.08880 | 144 ft | 17 kts | 255° |
| 2026-05-07 20:43 | 61.02684 | 69.08619 | 143 ft | 21 kts | 255° |
| 2026-05-07 20:43 | 61.02644 | 69.08311 | 143 ft | 24 kts | 255° |
| 2026-05-07 20:43 | 61.02599 | 69.07960 | 142 ft | 27 kts | 255° |
| 2026-05-07 20:43 | 61.02551 | 69.07578 | 142 ft | 29 kts | 255° |
| 2026-05-07 20:44 | 61.02611 | 69.07251 | 141 ft | 26 kts | 342° |
| 2026-05-07 20:44 | 61.02699 | 69.07359 | 141 ft | 8 kts | 73° |
| 2026-05-07 20:44 | 61.02757 | 69.07850 | 143 ft | 75 kts | 75° |
| 2026-05-07 20:44 | 61.02958 | 69.09402 | 147 ft | 144 kts | 75° |
| 2026-05-07 20:45 | 61.03224 | 69.11598 | 580 ft | 167 kts | 77° |
| 2026-05-07 20:45 | 61.03492 | 69.13961 | 1421 ft | 179 kts | 75° |
| 2026-05-07 20:45 | 61.03827 | 69.16611 | 2004 ft | 203 kts | 74° |
| 2026-05-07 20:45 | 61.04204 | 69.19562 | 2690 ft | 220 kts | 73° |
| 2026-05-07 20:46 | 61.04626 | 69.22700 | 3408 ft | 235 kts | 66° |
| 2026-05-07 20:46 | 61.05661 | 69.25182 | 4323 ft | 229 kts | 25° |
| 2026-05-07 20:46 | 61.07165 | 69.25680 | 5169 ft | 222 kts | 343° |
| 2026-05-07 20:46 | 61.08431 | 69.24037 | 6062 ft | 216 kts | 308° |
| 2026-05-07 20:47 | 61.09496 | 69.21868 | 6902 ft | 220 kts | 322° |
| 2026-05-07 20:47 | 61.10912 | 69.20568 | 7735 ft | 226 kts | 341° |
| 2026-05-07 20:47 | 61.12469 | 69.19995 | 8538 ft | 231 kts | 348° |
| 2026-05-07 20:47 | 61.14090 | 69.19672 | 9356 ft | 235 kts | 349° |
| 2026-05-07 20:48 | 61.15725 | 69.19374 | 10133 ft | 237 kts | 348° |
| 2026-05-07 20:48 | 61.17412 | 69.19030 | 10654 ft | 249 kts | 347° |
| 2026-05-07 20:48 | 61.19131 | 69.18598 | 11344 ft | 252 kts | 345° |
| 2026-05-07 20:48 | 61.20882 | 69.18145 | 12092 ft | 255 kts | 344° |
| 2026-05-07 20:49 | 61.22651 | 69.17688 | 12833 ft | 258 kts | 343° |
| 2026-05-07 20:49 | 61.24440 | 69.17224 | 13589 ft | 260 kts | 342° |
| 2026-05-07 20:49 | 61.26206 | 69.16640 | 14255 ft | 255 kts | 331° |
| 2026-05-07 20:49 | 61.27526 | 69.14568 | 14864 ft | 232 kts | 295° |
| 2026-05-07 20:50 | 61.27964 | 69.11395 | 15526 ft | 229 kts | 278° |
| 2026-05-07 20:50 | 61.28178 | 69.08143 | 16182 ft | 230 kts | 275° |
| 2026-05-07 20:50 | 61.28297 | 69.04801 | 16844 ft | 232 kts | 272° |
| 2026-05-07 20:50 | 61.27980 | 69.01511 | 17475 ft | 241 kts | 248° |
| 2026-05-07 20:51 | 61.27132 | 68.98511 | 18121 ft | 244 kts | 246° |
| 2026-05-07 20:51 | 61.26280 | 68.95440 | 18694 ft | 244 kts | 248° |
| 2026-05-07 20:51 | 61.25498 | 68.92294 | 19245 ft | 245 kts | 250° |
| 2026-05-07 20:51 | 61.24782 | 68.89129 | 19784 ft | 245 kts | 251° |
| 2026-05-07 20:52 | 61.24061 | 68.85894 | 20321 ft | 247 kts | 250° |
| 2026-05-07 20:52 | 61.23321 | 68.82645 | 20850 ft | 249 kts | 250° |
| 2026-05-07 20:52 | 61.22576 | 68.79409 | 21364 ft | 251 kts | 250° |
| 2026-05-07 20:52 | 61.21820 | 68.76122 | 21875 ft | 252 kts | 250° |
| 2026-05-07 20:53 | 61.21058 | 68.72864 | 22375 ft | 254 kts | 250° |
| 2026-05-07 20:53 | 61.20180 | 68.69621 | 22844 ft | 264 kts | 237° |
| 2026-05-07 20:53 | 61.18790 | 68.67043 | 23319 ft | 273 kts | 230° |
| 2026-05-07 20:53 | 61.17283 | 68.64579 | 23756 ft | 279 kts | 226° |
| 2026-05-07 20:54 | 61.15621 | 68.62385 | 24140 ft | 286 kts | 221° |
| 2026-05-07 20:54 | 61.13869 | 68.60374 | 24518 ft | 289 kts | 220° |
| 2026-05-07 20:54 | 61.12113 | 68.58402 | 24880 ft | 291 kts | 220° |
| 2026-05-07 20:54 | 61.10340 | 68.56320 | 25260 ft | 291 kts | 222° |
| 2026-05-07 20:55 | 61.08589 | 68.54184 | 25608 ft | 292 kts | 222° |
| 2026-05-07 20:55 | 61.06847 | 68.52068 | 25956 ft | 294 kts | 222° |
| 2026-05-07 20:55 | 61.05065 | 68.49920 | 26298 ft | 296 kts | 222° |
| 2026-05-07 20:55 | 61.03275 | 68.47771 | 26624 ft | 298 kts | 222° |
| 2026-05-07 20:56 | 61.01495 | 68.45637 | 26944 ft | 300 kts | 222° |
| 2026-05-07 20:56 | 60.99671 | 68.43454 | 27265 ft | 302 kts | 222° |
| 2026-05-07 20:56 | 60.97870 | 68.41299 | 27574 ft | 303 kts | 222° |
| 2026-05-07 20:56 | 60.96030 | 68.39100 | 27875 ft | 305 kts | 221° |
| 2026-05-07 20:57 | 60.94178 | 68.36892 | 28185 ft | 307 kts | 221° |
| 2026-05-07 20:57 | 60.92342 | 68.34708 | 28475 ft | 309 kts | 221° |
| 2026-05-07 20:57 | 60.90470 | 68.32485 | 28772 ft | 310 kts | 221° |
| 2026-05-07 20:57 | 60.88630 | 68.30178 | 29019 ft | 303 kts | 230° |
| 2026-05-07 20:58 | 60.87272 | 68.27085 | 29288 ft | 292 kts | 241° |
| 2026-05-07 20:58 | 60.86060 | 68.23716 | 29565 ft | 291 kts | 243° |
| 2026-05-07 20:58 | 60.84990 | 68.20240 | 29833 ft | 288 kts | 249° |
| 2026-05-07 20:58 | 60.84168 | 68.16501 | 30102 ft | 286 kts | 254° |
| 2026-05-07 20:59 | 60.83475 | 68.12727 | 30307 ft | 286 kts | 255° |
| 2026-05-07 20:59 | 60.82788 | 68.08881 | 30525 ft | 288 kts | 255° |
| 2026-05-07 20:59 | 60.82048 | 68.05007 | 30735 ft | 291 kts | 253° |
| 2026-05-07 20:59 | 60.81276 | 68.01185 | 30940 ft | 292 kts | 253° |
| 2026-05-07 21:00 | 60.80506 | 67.97349 | 31138 ft | 293 kts | 253° |
| 2026-05-07 21:00 | 60.79728 | 67.93463 | 31341 ft | 295 kts | 253° |
| 2026-05-07 21:00 | 60.78946 | 67.89573 | 31533 ft | 297 kts | 253° |
| 2026-05-07 21:00 | 60.78154 | 67.85644 | 31728 ft | 298 kts | 252° |
| 2026-05-07 21:01 | 60.77367 | 67.81743 | 31910 ft | 299 kts | 252° |
| 2026-05-07 21:01 | 60.75751 | 67.73758 | 32035 ft | 309 kts | 252° |
| 2026-05-07 21:02 | 60.74069 | 67.65478 | 32068 ft | 322 kts | 252° |
| 2026-05-07 21:02 | 60.72320 | 67.56907 | 32076 ft | 332 kts | 252° |
| 2026-05-07 21:03 | 60.70517 | 67.48192 | 32083 ft | 334 kts | 251° |
| 2026-05-07 21:03 | 60.68702 | 67.39476 | 32064 ft | 336 kts | 251° |
| 2026-05-07 21:04 | 60.66851 | 67.30643 | 32074 ft | 338 kts | 251° |
| 2026-05-07 21:04 | 60.65000 | 67.21833 | 32065 ft | 340 kts | 251° |
| 2026-05-07 21:05 | 60.63122 | 67.12937 | 32062 ft | 342 kts | 251° |
| 2026-05-07 21:05 | 60.61236 | 67.04038 | 32072 ft | 344 kts | 251° |
| 2026-05-07 21:06 | 60.59320 | 66.95042 | 32066 ft | 346 kts | 251° |
| 2026-05-07 21:06 | 60.57398 | 66.86064 | 32071 ft | 348 kts | 251° |
| 2026-05-07 21:07 | 60.55457 | 66.77026 | 32065 ft | 349 kts | 250° |
| 2026-05-07 21:07 | 60.53513 | 66.68034 | 32065 ft | 351 kts | 250° |
| 2026-05-07 21:08 | 60.51545 | 66.58947 | 32067 ft | 352 kts | 250° |
| 2026-05-07 21:08 | 60.49567 | 66.49865 | 32069 ft | 353 kts | 250° |
| 2026-05-07 21:09 | 60.47571 | 66.40732 | 32066 ft | 354 kts | 250° |
| 2026-05-07 21:09 | 60.45559 | 66.31572 | 32070 ft | 355 kts | 250° |
| 2026-05-07 21:10 | 60.43548 | 66.22457 | 32069 ft | 356 kts | 250° |
| 2026-05-07 21:10 | 60.41513 | 66.13277 | 32071 ft | 357 kts | 250° |
| 2026-05-07 21:11 | 60.39478 | 66.04128 | 32073 ft | 358 kts | 250° |
| 2026-05-07 21:11 | 60.36394 | 65.90343 | 32074 ft | 360 kts | 249° |
| 2026-05-07 21:12 | 60.34316 | 65.81104 | 32072 ft | 360 kts | 249° |
| 2026-05-07 21:12 | 60.32239 | 65.71905 | 32075 ft | 361 kts | 249° |
| 2026-05-07 21:13 | 60.30150 | 65.62710 | 32071 ft | 362 kts | 249° |
| 2026-05-07 21:13 | 60.28041 | 65.53448 | 32068 ft | 363 kts | 249° |
| 2026-05-07 21:14 | 60.25936 | 65.44254 | 32066 ft | 363 kts | 249° |
| 2026-05-07 21:14 | 60.23809 | 65.35005 | 32069 ft | 364 kts | 249° |
| 2026-05-07 21:15 | 60.21679 | 65.25777 | 32069 ft | 365 kts | 249° |
| 2026-05-07 21:15 | 60.19526 | 65.16500 | 32069 ft | 365 kts | 249° |
| 2026-05-07 21:16 | 60.17376 | 65.07269 | 32065 ft | 366 kts | 249° |
| 2026-05-07 21:16 | 60.15219 | 64.98044 | 32063 ft | 367 kts | 248° |
| 2026-05-07 21:17 | 60.13528 | 64.90519 | 32064 ft | 364 kts | 255° |
| 2026-05-07 21:17 | 60.12613 | 64.80566 | 32073 ft | 361 kts | 262° |
| 2026-05-07 21:18 | 60.11898 | 64.70604 | 32069 ft | 361 kts | 266° |
| 2026-05-07 21:18 | 60.11997 | 64.60579 | 32072 ft | 362 kts | 273° |
| 2026-05-07 21:19 | 60.12289 | 64.50527 | 32072 ft | 362 kts | 271° |
| 2026-05-07 21:19 | 60.12447 | 64.40418 | 32069 ft | 362 kts | 271° |
| 2026-05-07 21:20 | 60.12592 | 64.30307 | 32072 ft | 362 kts | 271° |
| 2026-05-07 21:20 | 60.12730 | 64.20280 | 32073 ft | 362 kts | 271° |
| 2026-05-07 21:21 | 60.12860 | 64.10152 | 32072 ft | 362 kts | 271° |
| 2026-05-07 21:21 | 60.12925 | 64.00049 | 32064 ft | 362 kts | 264° |
| 2026-05-07 21:22 | 60.11887 | 63.90189 | 32075 ft | 363 kts | 258° |
| 2026-05-07 21:22 | 60.10691 | 63.80354 | 32071 ft | 364 kts | 256° |
| 2026-05-07 21:23 | 60.08885 | 63.70840 | 32070 ft | 366 kts | 250° |
| 2026-05-07 21:23 | 60.06852 | 63.61478 | 32071 ft | 366 kts | 250° |
| 2026-05-07 21:24 | 60.04889 | 63.52093 | 32067 ft | 366 kts | 250° |
| 2026-05-07 21:24 | 60.02980 | 63.42874 | 32069 ft | 367 kts | 250° |
| 2026-05-07 21:25 | 60.01023 | 63.33432 | 32066 ft | 367 kts | 250° |
| 2026-05-07 21:25 | 59.99061 | 63.24041 | 32064 ft | 367 kts | 250° |
| 2026-05-07 21:26 | 59.97100 | 63.14680 | 32068 ft | 367 kts | 250° |
| 2026-05-07 21:26 | 59.95111 | 63.05250 | 32064 ft | 368 kts | 250° |
| 2026-05-07 21:27 | 59.93009 | 62.95978 | 32064 ft | 369 kts | 248° |
| 2026-05-07 21:27 | 59.90736 | 62.86782 | 32063 ft | 369 kts | 247° |
| 2026-05-07 21:28 | 59.88454 | 62.77653 | 32065 ft | 370 kts | 247° |
| 2026-05-07 21:28 | 59.86155 | 62.68477 | 32062 ft | 370 kts | 247° |
| 2026-05-07 21:29 | 59.83842 | 62.59306 | 32063 ft | 370 kts | 247° |
| 2026-05-07 21:29 | 59.81535 | 62.50185 | 32058 ft | 371 kts | 246° |
| 2026-05-07 21:30 | 59.79201 | 62.41006 | 32063 ft | 371 kts | 246° |
| 2026-05-07 21:30 | 59.76878 | 62.31906 | 32060 ft | 371 kts | 246° |
| 2026-05-07 21:31 | 59.74536 | 62.22756 | 32060 ft | 371 kts | 246° |
| 2026-05-07 21:31 | 59.72197 | 62.13666 | 32058 ft | 372 kts | 246° |
| 2026-05-07 21:32 | 59.69834 | 62.04527 | 32060 ft | 372 kts | 246° |
| 2026-05-07 21:32 | 59.67479 | 61.95441 | 32061 ft | 372 kts | 246° |
| 2026-05-07 21:33 | 59.65108 | 61.86346 | 32062 ft | 373 kts | 246° |
| 2026-05-07 21:33 | 59.62724 | 61.77234 | 32054 ft | 373 kts | 246° |
| 2026-05-07 21:34 | 59.60334 | 61.68126 | 32059 ft | 374 kts | 246° |
| 2026-05-07 21:34 | 59.57935 | 61.59030 | 32064 ft | 374 kts | 246° |
| 2026-05-07 21:35 | 59.55526 | 61.49935 | 32067 ft | 374 kts | 246° |
| 2026-05-07 21:35 | 59.53109 | 61.40843 | 32059 ft | 375 kts | 246° |
| 2026-05-07 21:36 | 59.50685 | 61.31759 | 32058 ft | 375 kts | 246° |
| 2026-05-07 21:36 | 59.48250 | 61.22669 | 32062 ft | 376 kts | 246° |
| 2026-05-07 21:37 | 59.45808 | 61.13593 | 32063 ft | 376 kts | 246° |
| 2026-05-07 21:37 | 59.43358 | 61.04521 | 32065 ft | 377 kts | 246° |
| 2026-05-07 21:38 | 59.41293 | 60.96910 | 32062 ft | 377 kts | 246° |
| 2026-05-07 21:38 | 59.38823 | 60.87830 | 32061 ft | 378 kts | 246° |
| 2026-05-07 21:39 | 59.35937 | 60.77271 | 32062 ft | 379 kts | 246° |
| 2026-05-07 21:39 | 59.33843 | 60.69635 | 32064 ft | 379 kts | 245° |
| 2026-05-07 21:40 | 59.31346 | 60.60570 | 32063 ft | 379 kts | 246° |
| 2026-05-07 21:40 | 59.28843 | 60.51521 | 32066 ft | 380 kts | 245° |
| 2026-05-07 21:41 | 59.26314 | 60.42411 | 32068 ft | 380 kts | 245° |
| 2026-05-07 21:41 | 59.23785 | 60.33340 | 32069 ft | 381 kts | 245° |
| 2026-05-07 21:42 | 59.21244 | 60.24259 | 32071 ft | 382 kts | 245° |
| 2026-05-07 21:42 | 59.18692 | 60.15174 | 32067 ft | 382 kts | 245° |
| 2026-05-07 21:43 | 59.16128 | 60.06088 | 32071 ft | 383 kts | 245° |
| 2026-05-07 21:43 | 59.13562 | 59.97024 | 32076 ft | 383 kts | 245° |
| 2026-05-07 21:44 | 59.10977 | 59.87932 | 32076 ft | 384 kts | 245° |
| 2026-05-07 21:44 | 59.08392 | 59.78872 | 32074 ft | 385 kts | 245° |
| 2026-05-07 21:45 | 59.05783 | 59.69771 | 32073 ft | 385 kts | 245° |
| 2026-05-07 21:45 | 59.03167 | 59.60679 | 32077 ft | 386 kts | 245° |
| 2026-05-07 21:46 | 59.00546 | 59.51609 | 32078 ft | 386 kts | 245° |
| 2026-05-07 21:46 | 58.97910 | 59.42513 | 32080 ft | 387 kts | 245° |
| 2026-05-07 21:47 | 58.95270 | 59.33444 | 32080 ft | 387 kts | 245° |
| 2026-05-07 21:47 | 58.92614 | 59.24362 | 32085 ft | 388 kts | 244° |
| 2026-05-07 21:48 | 58.89954 | 59.15292 | 32086 ft | 388 kts | 244° |
| 2026-05-07 21:48 | 58.87292 | 59.06252 | 32079 ft | 389 kts | 244° |
| 2026-05-07 21:49 | 58.84591 | 58.97125 | 32082 ft | 389 kts | 244° |
| 2026-05-07 21:49 | 58.81901 | 58.88069 | 32086 ft | 390 kts | 244° |
| 2026-05-07 21:50 | 58.79204 | 58.79018 | 32088 ft | 391 kts | 244° |
| 2026-05-07 21:50 | 58.76483 | 58.69923 | 32077 ft | 391 kts | 244° |
| 2026-05-07 21:51 | 58.73760 | 58.60853 | 32090 ft | 392 kts | 244° |
| 2026-05-07 21:51 | 58.71033 | 58.51813 | 32084 ft | 392 kts | 244° |
| 2026-05-07 21:52 | 58.68295 | 58.42764 | 32079 ft | 393 kts | 243° |
| 2026-05-07 21:52 | 58.65531 | 58.33679 | 32078 ft | 393 kts | 243° |
| 2026-05-07 21:53 | 58.62780 | 58.24642 | 32079 ft | 394 kts | 243° |
| 2026-05-07 21:53 | 58.60006 | 58.15539 | 32080 ft | 394 kts | 243° |
| 2026-05-07 21:54 | 58.57238 | 58.06488 | 32077 ft | 395 kts | 243° |
| 2026-05-07 21:54 | 58.54444 | 57.97373 | 32074 ft | 396 kts | 243° |
| 2026-05-07 21:55 | 58.51652 | 57.88307 | 32076 ft | 396 kts | 243° |
| 2026-05-07 21:55 | 58.48850 | 57.79246 | 32066 ft | 397 kts | 243° |
| 2026-05-07 21:56 | 58.46033 | 57.70181 | 32066 ft | 397 kts | 243° |
| 2026-05-07 21:56 | 58.43201 | 57.61096 | 32061 ft | 398 kts | 243° |
| 2026-05-07 21:57 | 58.40363 | 57.52034 | 32059 ft | 398 kts | 243° |
| 2026-05-07 21:57 | 58.37526 | 57.43006 | 32055 ft | 398 kts | 242° |
| 2026-05-07 21:58 | 58.34680 | 57.33983 | 32056 ft | 399 kts | 242° |
| 2026-05-07 21:58 | 58.31822 | 57.24942 | 32056 ft | 399 kts | 242° |
| 2026-05-07 21:59 | 58.28948 | 57.15920 | 32053 ft | 400 kts | 242° |
| 2026-05-07 21:59 | 58.26058 | 57.06847 | 32051 ft | 400 kts | 242° |
| 2026-05-07 22:00 | 58.23174 | 56.97819 | 32048 ft | 401 kts | 242° |
| 2026-05-07 22:00 | 58.20269 | 56.88763 | 32055 ft | 401 kts | 242° |
| 2026-05-07 22:01 | 58.17358 | 56.79732 | 32049 ft | 402 kts | 242° |
| 2026-05-07 22:01 | 58.14436 | 56.70697 | 32052 ft | 402 kts | 242° |
| 2026-05-07 22:02 | 58.11508 | 56.61679 | 32054 ft | 403 kts | 241° |
| 2026-05-07 22:02 | 58.08574 | 56.52686 | 32052 ft | 404 kts | 241° |
| 2026-05-07 22:03 | 58.05627 | 56.43678 | 32047 ft | 404 kts | 241° |
| 2026-05-07 22:03 | 58.02651 | 56.34620 | 32048 ft | 405 kts | 241° |
| 2026-05-07 22:04 | 57.99678 | 56.25605 | 32048 ft | 405 kts | 241° |
| 2026-05-07 22:04 | 57.96701 | 56.16610 | 32050 ft | 406 kts | 241° |
| 2026-05-07 22:05 | 57.93702 | 56.07580 | 32043 ft | 407 kts | 240° |
| 2026-05-07 22:05 | 57.90560 | 55.98764 | 32046 ft | 409 kts | 236° |
| 2026-05-07 22:06 | 57.87067 | 55.90324 | 32045 ft | 410 kts | 235° |
| 2026-05-07 22:06 | 57.83589 | 55.81878 | 32045 ft | 410 kts | 235° |
| 2026-05-07 22:07 | 57.80135 | 55.73353 | 32043 ft | 410 kts | 235° |
| 2026-05-07 22:07 | 57.76677 | 55.64846 | 32048 ft | 411 kts | 235° |
| 2026-05-07 22:08 | 57.73213 | 55.56347 | 32045 ft | 412 kts | 235° |
| 2026-05-07 22:08 | 57.69730 | 55.47834 | 32050 ft | 413 kts | 235° |
| 2026-05-07 22:09 | 57.66224 | 55.39295 | 32047 ft | 413 kts | 235° |
| 2026-05-07 22:09 | 57.62715 | 55.30777 | 32045 ft | 414 kts | 235° |
| 2026-05-07 22:10 | 57.59205 | 55.22290 | 32040 ft | 414 kts | 234° |
| 2026-05-07 22:10 | 57.55683 | 55.13805 | 32043 ft | 415 kts | 234° |
| 2026-05-07 22:11 | 57.52151 | 55.05321 | 32043 ft | 416 kts | 234° |
| 2026-05-07 22:11 | 57.48601 | 54.96827 | 32044 ft | 416 kts | 234° |
| 2026-05-07 22:12 | 57.45049 | 54.88358 | 32039 ft | 417 kts | 234° |
| 2026-05-07 22:12 | 57.41476 | 54.79879 | 32038 ft | 417 kts | 234° |
| 2026-05-07 22:13 | 57.37908 | 54.71397 | 32037 ft | 418 kts | 234° |
| 2026-05-07 22:13 | 57.34321 | 54.62945 | 32040 ft | 418 kts | 234° |
| 2026-05-07 22:14 | 57.30710 | 54.54455 | 32042 ft | 419 kts | 234° |
| 2026-05-07 22:14 | 57.27118 | 54.46042 | 32040 ft | 419 kts | 234° |
| 2026-05-07 22:15 | 57.23504 | 54.37605 | 32045 ft | 420 kts | 234° |
| 2026-05-07 22:15 | 57.19858 | 54.29114 | 32032 ft | 420 kts | 234° |
| 2026-05-07 22:16 | 57.16256 | 54.20672 | 32025 ft | 420 kts | 234° |
| 2026-05-07 22:16 | 57.12611 | 54.12217 | 32030 ft | 421 kts | 233° |
| 2026-05-07 22:17 | 57.08966 | 54.03854 | 32032 ft | 421 kts | 233° |
| 2026-05-07 22:17 | 57.05276 | 53.95434 | 32029 ft | 422 kts | 233° |
| 2026-05-07 22:18 | 56.99761 | 53.82887 | 32032 ft | 422 kts | 233° |
| 2026-05-07 22:19 | 56.96119 | 53.74497 | 32024 ft | 422 kts | 233° |
| 2026-05-07 22:19 | 56.92431 | 53.66076 | 32022 ft | 422 kts | 233° |
| 2026-05-07 22:20 | 56.88765 | 53.57738 | 32023 ft | 423 kts | 233° |
| 2026-05-07 22:20 | 56.85064 | 53.49345 | 32023 ft | 423 kts | 233° |
| 2026-05-07 22:21 | 56.81273 | 53.41169 | 32023 ft | 424 kts | 230° |
| 2026-05-07 22:21 | 56.77220 | 53.33297 | 32021 ft | 424 kts | 229° |
| 2026-05-07 22:22 | 56.73181 | 53.25462 | 32021 ft | 425 kts | 229° |
| 2026-05-07 22:22 | 56.69174 | 53.17619 | 32023 ft | 425 kts | 229° |
| 2026-05-07 22:23 | 56.65142 | 53.09725 | 32017 ft | 425 kts | 229° |
| 2026-05-07 22:23 | 56.61078 | 53.01869 | 32015 ft | 426 kts | 229° |
| 2026-05-07 22:24 | 56.56999 | 52.94066 | 32017 ft | 426 kts | 228° |
| 2026-05-07 22:24 | 56.52922 | 52.86313 | 32016 ft | 427 kts | 228° |
| 2026-05-07 22:25 | 56.48826 | 52.78542 | 32015 ft | 427 kts | 228° |
| 2026-05-07 22:25 | 56.44728 | 52.70743 | 32016 ft | 427 kts | 229° |
| 2026-05-07 22:26 | 56.40906 | 52.62603 | 32015 ft | 426 kts | 232° |
| 2026-05-07 22:26 | 56.37185 | 52.54303 | 32014 ft | 426 kts | 232° |
| 2026-05-07 22:27 | 56.33447 | 52.46021 | 32008 ft | 426 kts | 232° |
| 2026-05-07 22:27 | 56.29673 | 52.37774 | 32009 ft | 427 kts | 232° |
| 2026-05-07 22:28 | 56.25884 | 52.29551 | 32012 ft | 427 kts | 231° |
| 2026-05-07 22:28 | 56.22086 | 52.21375 | 32011 ft | 427 kts | 231° |
| 2026-05-07 22:29 | 56.18283 | 52.13180 | 32004 ft | 428 kts | 231° |
| 2026-05-07 22:29 | 56.14465 | 52.04973 | 32007 ft | 428 kts | 231° |
| 2026-05-07 22:30 | 56.10655 | 51.96821 | 32003 ft | 428 kts | 231° |
| 2026-05-07 22:30 | 56.06797 | 51.88604 | 32002 ft | 429 kts | 231° |
| 2026-05-07 22:31 | 56.02725 | 51.80894 | 32000 ft | 430 kts | 223° |
| 2026-05-07 22:31 | 55.98063 | 51.74184 | 31999 ft | 431 kts | 218° |
| 2026-05-07 22:32 | 55.93295 | 51.67713 | 31999 ft | 431 kts | 219° |
| 2026-05-07 22:32 | 55.88578 | 51.61126 | 31996 ft | 432 kts | 219° |
| 2026-05-07 22:33 | 55.83858 | 51.54542 | 31995 ft | 432 kts | 219° |
| 2026-05-07 22:33 | 55.79115 | 51.47942 | 31993 ft | 433 kts | 219° |
| 2026-05-07 22:34 | 55.74361 | 51.41437 | 31986 ft | 433 kts | 215° |
| 2026-05-07 22:34 | 55.69125 | 51.36100 | 31990 ft | 435 kts | 207° |
| 2026-05-07 22:35 | 55.63609 | 51.31660 | 31983 ft | 435 kts | 205° |
| 2026-05-07 22:35 | 55.58091 | 51.27207 | 31990 ft | 436 kts | 206° |
| 2026-05-07 22:36 | 55.52603 | 51.22667 | 31985 ft | 436 kts | 206° |
| 2026-05-07 22:36 | 55.47106 | 51.18126 | 31981 ft | 437 kts | 205° |
| 2026-05-07 22:37 | 55.41600 | 51.13600 | 31981 ft | 437 kts | 205° |
| 2026-05-07 22:37 | 55.37015 | 51.09840 | 31982 ft | 438 kts | 206° |
| 2026-05-07 22:38 | 55.31469 | 51.05300 | 31979 ft | 438 kts | 205° |
| 2026-05-07 22:38 | 55.25962 | 51.00838 | 31975 ft | 439 kts | 205° |
| 2026-05-07 22:39 | 55.20400 | 50.96299 | 31983 ft | 439 kts | 205° |
| 2026-05-07 22:39 | 55.14851 | 50.91820 | 31984 ft | 440 kts | 205° |
| 2026-05-07 22:40 | 55.09295 | 50.87333 | 31982 ft | 440 kts | 205° |
| 2026-05-07 22:40 | 55.03741 | 50.82885 | 31982 ft | 441 kts | 205° |
| 2026-05-07 22:41 | 54.98185 | 50.78392 | 31975 ft | 441 kts | 205° |
| 2026-05-07 22:41 | 54.92605 | 50.73937 | 31970 ft | 442 kts | 205° |
| 2026-05-07 22:42 | 54.87018 | 50.69472 | 31980 ft | 442 kts | 204° |
| 2026-05-07 22:42 | 54.81419 | 50.65021 | 31970 ft | 442 kts | 204° |
| 2026-05-07 22:43 | 54.75828 | 50.60579 | 31973 ft | 443 kts | 204° |
| 2026-05-07 22:43 | 54.70228 | 50.56158 | 31969 ft | 443 kts | 204° |
| 2026-05-07 22:44 | 54.64637 | 50.51737 | 31971 ft | 443 kts | 204° |
| 2026-05-07 22:44 | 54.59022 | 50.47321 | 31972 ft | 444 kts | 204° |
| 2026-05-07 22:45 | 54.53409 | 50.42924 | 31969 ft | 444 kts | 204° |
| 2026-05-07 22:45 | 54.47765 | 50.38519 | 31963 ft | 444 kts | 204° |
| 2026-05-07 22:46 | 54.42118 | 50.34114 | 31970 ft | 445 kts | 204° |
| 2026-05-07 22:46 | 54.36606 | 50.29414 | 31970 ft | 445 kts | 209° |
| 2026-05-07 22:47 | 54.31265 | 50.23971 | 31966 ft | 445 kts | 211° |
| 2026-05-07 22:47 | 54.25914 | 50.18707 | 31969 ft | 446 kts | 209° |
| 2026-05-07 22:48 | 54.20511 | 50.13478 | 31969 ft | 446 kts | 209° |
| 2026-05-07 22:48 | 54.15117 | 50.08272 | 31957 ft | 446 kts | 209° |
| 2026-05-07 22:49 | 54.09246 | 50.02627 | 31955 ft | 446 kts | 209° |
| 2026-05-07 22:49 | 54.03969 | 49.97055 | 31956 ft | 446 kts | 219° |
| 2026-05-07 22:50 | 53.99328 | 49.90116 | 31961 ft | 446 kts | 224° |
| 2026-05-07 22:50 | 53.95162 | 49.82300 | 31964 ft | 446 kts | 230° |
| 2026-05-07 22:51 | 53.91076 | 49.74336 | 31963 ft | 447 kts | 228° |
| 2026-05-07 22:51 | 53.86924 | 49.66551 | 31960 ft | 447 kts | 228° |
| 2026-05-07 22:52 | 53.82739 | 49.58726 | 31960 ft | 447 kts | 228° |
| 2026-05-07 22:52 | 53.78573 | 49.50962 | 31959 ft | 447 kts | 228° |
| 2026-05-07 22:53 | 53.74369 | 49.43251 | 31964 ft | 447 kts | 227° |
| 2026-05-07 22:53 | 53.70161 | 49.35545 | 31957 ft | 447 kts | 227° |
| 2026-05-07 22:54 | 53.65932 | 49.27823 | 31965 ft | 447 kts | 227° |
| 2026-05-07 22:54 | 53.61722 | 49.20153 | 31959 ft | 447 kts | 227° |
| 2026-05-07 22:55 | 53.57494 | 49.12483 | 31965 ft | 447 kts | 227° |
| 2026-05-07 22:55 | 53.53262 | 49.04838 | 31965 ft | 447 kts | 227° |
| 2026-05-07 22:56 | 53.49029 | 48.97208 | 31962 ft | 446 kts | 227° |
| 2026-05-07 22:56 | 53.44771 | 48.89556 | 31964 ft | 446 kts | 227° |
| 2026-05-07 22:57 | 53.40549 | 48.81966 | 31961 ft | 446 kts | 227° |
| 2026-05-07 22:57 | 53.36317 | 48.74383 | 31967 ft | 446 kts | 227° |
| 2026-05-07 22:58 | 53.32080 | 48.66799 | 31964 ft | 446 kts | 227° |
| 2026-05-07 22:58 | 53.27842 | 48.59244 | 31957 ft | 446 kts | 227° |
| 2026-05-07 22:59 | 53.23593 | 48.51699 | 31962 ft | 446 kts | 227° |
| 2026-05-07 22:59 | 53.19347 | 48.44180 | 31960 ft | 446 kts | 227° |
| 2026-05-07 23:00 | 53.15099 | 48.36689 | 31961 ft | 446 kts | 227° |
| 2026-05-07 23:00 | 53.11341 | 48.28534 | 31964 ft | 444 kts | 240° |
| 2026-05-07 23:01 | 53.08383 | 48.19522 | 31972 ft | 444 kts | 245° |
| 2026-05-07 23:01 | 53.06130 | 48.10020 | 31979 ft | 444 kts | 250° |
| 2026-05-07 23:02 | 53.03922 | 48.00393 | 31980 ft | 444 kts | 249° |
| 2026-05-07 23:02 | 53.01614 | 47.90868 | 31976 ft | 444 kts | 249° |
| 2026-05-07 23:03 | 52.99310 | 47.81392 | 31656 ft | 443 kts | 248° |
| 2026-05-07 23:03 | 52.98160 | 47.76665 | 31214 ft | 435 kts | 248° |
| 2026-05-07 23:03 | 52.97043 | 47.72101 | 30789 ft | 429 kts | 249° |
| 2026-05-07 23:03 | 52.95924 | 47.67525 | 30367 ft | 423 kts | 249° |
| 2026-05-07 23:04 | 52.94824 | 47.63043 | 29934 ft | 418 kts | 248° |
| 2026-05-07 23:04 | 52.93739 | 47.58629 | 29444 ft | 414 kts | 249° |
| 2026-05-07 23:04 | 52.92651 | 47.54207 | 28965 ft | 411 kts | 248° |
| 2026-05-07 23:04 | 52.91568 | 47.49842 | 28495 ft | 407 kts | 248° |
| 2026-05-07 23:05 | 52.90502 | 47.45552 | 28042 ft | 405 kts | 248° |
| 2026-05-07 23:05 | 52.89437 | 47.41233 | 27586 ft | 402 kts | 248° |
| 2026-05-07 23:05 | 52.88371 | 47.36937 | 27137 ft | 400 kts | 248° |
| 2026-05-07 23:05 | 52.87325 | 47.32718 | 26702 ft | 398 kts | 248° |
| 2026-05-07 23:06 | 52.86624 | 47.29899 | 26417 ft | 397 kts | 248° |
| 2026-05-07 23:06 | 52.85226 | 47.24272 | 25853 ft | 395 kts | 248° |
| 2026-05-07 23:06 | 52.84187 | 47.20103 | 25429 ft | 394 kts | 248° |
| 2026-05-07 23:06 | 52.83485 | 47.17307 | 25154 ft | 393 kts | 248° |
| 2026-05-07 23:07 | 52.81536 | 47.12264 | 24588 ft | 392 kts | 225° |
| 2026-05-07 23:07 | 52.79506 | 47.09322 | 24202 ft | 391 kts | 218° |
| 2026-05-07 23:07 | 52.78048 | 47.07540 | 23942 ft | 390 kts | 213° |
| 2026-05-07 23:07 | 52.75695 | 47.05250 | 23546 ft | 390 kts | 207° |
| 2026-05-07 23:08 | 52.73294 | 47.03255 | 23090 ft | 389 kts | 206° |
| 2026-05-07 23:08 | 52.70854 | 47.01286 | 22632 ft | 387 kts | 206° |
| 2026-05-07 23:08 | 52.68479 | 46.99341 | 22184 ft | 382 kts | 207° |
| 2026-05-07 23:08 | 52.66130 | 46.97326 | 21734 ft | 377 kts | 208° |
| 2026-05-07 23:09 | 52.63842 | 46.95339 | 21293 ft | 373 kts | 207° |
| 2026-05-07 23:09 | 52.61540 | 46.93342 | 20855 ft | 370 kts | 208° |
| 2026-05-07 23:09 | 52.59286 | 46.91391 | 20426 ft | 367 kts | 208° |
| 2026-05-07 23:09 | 52.57033 | 46.89445 | 20006 ft | 365 kts | 208° |
| 2026-05-07 23:10 | 52.54785 | 46.87508 | 19581 ft | 363 kts | 208° |
| 2026-05-07 23:10 | 52.52543 | 46.85575 | 19176 ft | 362 kts | 208° |
| 2026-05-07 23:10 | 52.50312 | 46.83666 | 18772 ft | 360 kts | 208° |
| 2026-05-07 23:10 | 52.48102 | 46.81760 | 18368 ft | 359 kts | 208° |
| 2026-05-07 23:11 | 52.45908 | 46.79869 | 17932 ft | 357 kts | 208° |
| 2026-05-07 23:11 | 52.43720 | 46.77994 | 17478 ft | 356 kts | 208° |
| 2026-05-07 23:11 | 52.41516 | 46.76104 | 17028 ft | 355 kts | 208° |
| 2026-05-07 23:11 | 52.39317 | 46.74225 | 16589 ft | 354 kts | 208° |
| 2026-05-07 23:12 | 52.37157 | 46.72374 | 16165 ft | 353 kts | 208° |
| 2026-05-07 23:12 | 52.34989 | 46.70525 | 15734 ft | 352 kts | 207° |
| 2026-05-07 23:12 | 52.32811 | 46.68669 | 15310 ft | 351 kts | 207° |
| 2026-05-07 23:12 | 52.30668 | 46.66840 | 14894 ft | 349 kts | 207° |
| 2026-05-07 23:13 | 52.28505 | 46.65001 | 14480 ft | 348 kts | 207° |
| 2026-05-07 23:13 | 52.26377 | 46.63193 | 14064 ft | 346 kts | 207° |
| 2026-05-07 23:13 | 52.24238 | 46.61373 | 13661 ft | 345 kts | 207° |
| 2026-05-07 23:13 | 52.22133 | 46.59588 | 13215 ft | 343 kts | 207° |
| 2026-05-07 23:14 | 52.20012 | 46.57796 | 12766 ft | 341 kts | 207° |
| 2026-05-07 23:14 | 52.17908 | 46.56025 | 12328 ft | 339 kts | 208° |
| 2026-05-07 23:14 | 52.15844 | 46.54272 | 11893 ft | 335 kts | 208° |
| 2026-05-07 23:14 | 52.13769 | 46.52508 | 11462 ft | 331 kts | 208° |
| 2026-05-07 23:15 | 52.11735 | 46.50791 | 11044 ft | 328 kts | 208° |
| 2026-05-07 23:15 | 52.09734 | 46.49105 | 10622 ft | 326 kts | 208° |
| 2026-05-07 23:15 | 52.07723 | 46.47407 | 10210 ft | 323 kts | 208° |
| 2026-05-07 23:15 | 52.05741 | 46.45742 | 9792 ft | 320 kts | 208° |
| 2026-05-07 23:16 | 52.03771 | 46.44083 | 9348 ft | 318 kts | 208° |
| 2026-05-07 23:16 | 52.01780 | 46.42538 | 8892 ft | 315 kts | 199° |
| 2026-05-07 23:16 | 51.99635 | 46.42234 | 8452 ft | 312 kts | 174° |
| 2026-05-07 23:16 | 51.97550 | 46.42822 | 8000 ft | 298 kts | 166° |
| 2026-05-07 23:17 | 51.95563 | 46.43626 | 7502 ft | 289 kts | 164° |
| 2026-05-07 23:17 | 51.93639 | 46.44454 | 7008 ft | 282 kts | 164° |
| 2026-05-07 23:17 | 51.91782 | 46.45246 | 6525 ft | 275 kts | 165° |
| 2026-05-07 23:17 | 51.89924 | 46.45967 | 6020 ft | 269 kts | 167° |
| 2026-05-07 23:18 | 51.88122 | 46.46604 | 5515 ft | 264 kts | 167° |
| 2026-05-07 23:18 | 51.86346 | 46.47234 | 5011 ft | 259 kts | 167° |
| 2026-05-07 23:18 | 51.84594 | 46.47864 | 4519 ft | 255 kts | 167° |
| 2026-05-07 23:18 | 51.82886 | 46.48477 | 4009 ft | 251 kts | 167° |
| 2026-05-07 23:19 | 51.81203 | 46.49089 | 3516 ft | 248 kts | 167° |
| 2026-05-07 23:19 | 51.79495 | 46.49326 | 2981 ft | 244 kts | 192° |
| 2026-05-07 23:19 | 51.77909 | 46.48440 | 2502 ft | 243 kts | 204° |
| 2026-05-07 23:19 | 51.76363 | 46.47311 | 2236 ft | 243 kts | 205° |
| 2026-05-07 23:20 | 51.74862 | 46.46211 | 2107 ft | 235 kts | 204° |
| 2026-05-07 23:20 | 51.73403 | 46.45137 | 2045 ft | 225 kts | 205° |
| 2026-05-07 23:20 | 51.72025 | 46.44122 | 2077 ft | 206 kts | 204° |
| 2026-05-07 23:20 | 51.70773 | 46.43131 | 2042 ft | 196 kts | 214° |
| 2026-05-07 23:21 | 51.69998 | 46.41468 | 1993 ft | 185 kts | 255° |
| 2026-05-07 23:21 | 51.69982 | 46.39518 | 2000 ft | 166 kts | 280° |
| 2026-05-07 23:21 | 51.70147 | 46.37732 | 2005 ft | 156 kts | 283° |
| 2026-05-07 23:21 | 51.70329 | 46.36074 | 2007 ft | 142 kts | 284° |
| 2026-05-07 23:22 | 51.70504 | 46.34571 | 1996 ft | 135 kts | 284° |
| 2026-05-07 23:22 | 51.70681 | 46.33038 | 1800 ft | 139 kts | 283° |
| 2026-05-07 23:22 | 51.70843 | 46.31504 | 1615 ft | 139 kts | 282° |
| 2026-05-07 23:22 | 51.70955 | 46.29960 | 1416 ft | 138 kts | 278° |
| 2026-05-07 23:23 | 51.71020 | 46.28422 | 1247 ft | 137 kts | 276° |
| 2026-05-07 23:23 | 51.71062 | 46.26901 | 1057 ft | 135 kts | 274° |
| 2026-05-07 23:23 | 51.71091 | 46.25416 | 894 ft | 133 kts | 273° |
| 2026-05-07 23:23 | 51.71120 | 46.23932 | 720 ft | 131 kts | 273° |
| 2026-05-07 23:24 | 51.71147 | 46.22480 | 539 ft | 127 kts | 272° |
| 2026-05-07 23:24 | 51.71170 | 46.21099 | 361 ft | 122 kts | 272° |
| 2026-05-07 23:24 | 51.71195 | 46.19752 | 201 ft | 120 kts | 272° |
| 2026-05-07 23:24 | 51.71227 | 46.18446 | 108 ft | 106 kts | 273° |
| 2026-05-07 23:25 | 51.71253 | 46.17618 | 108 ft | 32 kts | 270° |
| 2026-05-07 23:25 | 51.71311 | 46.17413 | 109 ft | 16 kts | 356° |
| 2026-05-07 23:25 | 51.71431 | 46.17423 | 109 ft | 18 kts | 4° |
| 2026-05-07 23:25 | 51.71515 | 46.17380 | 109 ft | 12 kts | 287° |
| 2026-05-07 23:26 | 51.71521 | 46.17236 | 109 ft | 14 kts | 272° |
| 2026-05-07 23:26 | 51.71526 | 46.17065 | 109 ft | 11 kts | 276° |
| 2026-05-07 23:26 | 51.71542 | 46.17026 | 107 ft | 3 kts | 342° |
| 2026-05-07 23:26 | 51.71574 | 46.17025 | 109 ft | 0 kts | 2° |